sensor_id;sensor_type;location;lat;lon;timestamp;temperature;humidity
52036;DHT22;38046;49.448;32.074;2023-03-09T00:01:39;8.30;77.60
52036;DHT22;38046;49.448;32.074;2023-03-09T00:04:05;8.30;77.60
52036;DHT22;38046;49.448;32.074;2023-03-09T00:06:31;8.20;77.70
52036;DHT22;38046;49.448;32.074;2023-03-09T00:08:57;8.20;77.80
52036;DHT22;38046;49.448;32.074;2023-03-09T00:11:23;8.10;77.60
52036;DHT22;38046;49.448;32.074;2023-03-09T00:13:49;8.10;77.70
52036;DHT22;38046;49.448;32.074;2023-03-09T00:16:22;8.10;77.80
52036;DHT22;38046;49.448;32.074;2023-03-09T00:18:48;8.10;78.10
52036;DHT22;38046;49.448;32.074;2023-03-09T00:21:17;8.10;78.10
52036;DHT22;38046;49.448;32.074;2023-03-09T00:24:11;8.10;78.20
52036;DHT22;38046;49.448;32.074;2023-03-09T00:26:39;8.10;78.30
52036;DHT22;38046;49.448;32.074;2023-03-09T00:29:07;8.00;78.30
52036;DHT22;38046;49.448;32.074;2023-03-09T00:31:33;8.00;78.50
52036;DHT22;38046;49.448;32.074;2023-03-09T00:33:59;8.00;78.60
52036;DHT22;38046;49.448;32.074;2023-03-09T00:36:24;8.10;78.60
52036;DHT22;38046;49.448;32.074;2023-03-09T00:38:54;8.10;78.50
52036;DHT22;38046;49.448;32.074;2023-03-09T00:41:22;8.10;78.40
52036;DHT22;38046;49.448;32.074;2023-03-09T00:43:48;8.10;78.70
52036;DHT22;38046;49.448;32.074;2023-03-09T00:46:13;8.10;78.90
52036;DHT22;38046;49.448;32.074;2023-03-09T00:48:40;8.10;78.70
52036;DHT22;38046;49.448;32.074;2023-03-09T00:51:06;8.10;78.60
52036;DHT22;38046;49.448;32.074;2023-03-09T00:53:32;8.10;78.50
52036;DHT22;38046;49.448;32.074;2023-03-09T00:56:09;8.10;78.50
52036;DHT22;38046;49.448;32.074;2023-03-09T00:58:37;8.10;78.60
52036;DHT22;38046;49.448;32.074;2023-03-09T01:01:11;8.10;78.60
52036;DHT22;38046;49.448;32.074;2023-03-09T01:03:37;8.20;78.70
52036;DHT22;38046;49.448;32.074;2023-03-09T01:06:03;8.20;78.60
52036;DHT22;38046;49.448;32.074;2023-03-09T01:08:30;8.20;78.50
52036;DHT22;38046;49.448;32.074;2023-03-09T01:10:55;8.20;78.60
52036;DHT22;38046;49.448;32.074;2023-03-09T01:13:21;8.10;78.50
52036;DHT22;38046;49.448;32.074;2023-03-09T01:15:46;8.10;78.60
52036;DHT22;38046;49.448;32.074;2023-03-09T01:18:12;8.10;78.70
52036;DHT22;38046;49.448;32.074;2023-03-09T01:20:38;8.10;78.80
52036;DHT22;38046;49.448;32.074;2023-03-09T01:23:04;8.10;78.80
52036;DHT22;38046;49.448;32.074;2023-03-09T01:25:29;8.10;78.80
52036;DHT22;38046;49.448;32.074;2023-03-09T01:27:55;8.10;78.80
52036;DHT22;38046;49.448;32.074;2023-03-09T01:30:21;8.10;78.70
52036;DHT22;38046;49.448;32.074;2023-03-09T01:32:46;8.10;78.70
52036;DHT22;38046;49.448;32.074;2023-03-09T01:35:14;8.00;78.70
52036;DHT22;38046;49.448;32.074;2023-03-09T01:37:39;8.00;78.80
52036;DHT22;38046;49.448;32.074;2023-03-09T01:40:06;8.00;78.90
52036;DHT22;38046;49.448;32.074;2023-03-09T01:42:33;8.00;79.10
52036;DHT22;38046;49.448;32.074;2023-03-09T01:47:42;7.90;79.00
52036;DHT22;38046;49.448;32.074;2023-03-09T01:50:09;7.90;79.10
52036;DHT22;38046;49.448;32.074;2023-03-09T01:52:35;7.90;79.20
52036;DHT22;38046;49.448;32.074;2023-03-09T01:55:03;7.90;79.10
52036;DHT22;38046;49.448;32.074;2023-03-09T01:57:49;7.90;79.10
52036;DHT22;38046;49.448;32.074;2023-03-09T02:00:22;7.80;79.00
52036;DHT22;38046;49.448;32.074;2023-03-09T02:02:53;7.80;79.30
52036;DHT22;38046;49.448;32.074;2023-03-09T02:05:28;7.80;79.30
52036;DHT22;38046;49.448;32.074;2023-03-09T02:07:56;7.80;79.10
52036;DHT22;38046;49.448;32.074;2023-03-09T02:10:27;7.80;79.10
52036;DHT22;38046;49.448;32.074;2023-03-09T02:12:57;7.80;78.90
52036;DHT22;38046;49.448;32.074;2023-03-09T02:15:24;7.80;78.70
52036;DHT22;38046;49.448;32.074;2023-03-09T02:17:51;7.80;78.60
52036;DHT22;38046;49.448;32.074;2023-03-09T02:20:22;7.80;78.50
52036;DHT22;38046;49.448;32.074;2023-03-09T02:22:49;7.80;78.70
52036;DHT22;38046;49.448;32.074;2023-03-09T02:25:36;7.80;78.90
52036;DHT22;38046;49.448;32.074;2023-03-09T02:28:03;7.80;79.10
52036;DHT22;38046;49.448;32.074;2023-03-09T02:30:33;7.80;79.40
52036;DHT22;38046;49.448;32.074;2023-03-09T02:35:30;7.80;79.40
52036;DHT22;38046;49.448;32.074;2023-03-09T02:37:56;7.80;79.30
52036;DHT22;38046;49.448;32.074;2023-03-09T02:40:32;7.90;79.30
52036;DHT22;38046;49.448;32.074;2023-03-09T02:42:59;7.90;79.40
52036;DHT22;38046;49.448;32.074;2023-03-09T02:45:28;7.90;79.40
52036;DHT22;38046;49.448;32.074;2023-03-09T02:47:54;7.90;79.40
52036;DHT22;38046;49.448;32.074;2023-03-09T02:50:21;7.90;79.40
52036;DHT22;38046;49.448;32.074;2023-03-09T02:52:46;7.90;79.40
52036;DHT22;38046;49.448;32.074;2023-03-09T02:55:12;7.90;79.50
52036;DHT22;38046;49.448;32.074;2023-03-09T02:57:38;7.90;79.50
52036;DHT22;38046;49.448;32.074;2023-03-09T03:00:06;8.00;79.50
52036;DHT22;38046;49.448;32.074;2023-03-09T03:02:34;8.00;79.40
52036;DHT22;38046;49.448;32.074;2023-03-09T03:05:00;8.00;79.20
52036;DHT22;38046;49.448;32.074;2023-03-09T03:07:26;8.00;79.20
52036;DHT22;38046;49.448;32.074;2023-03-09T03:09:51;8.00;79.10
52036;DHT22;38046;49.448;32.074;2023-03-09T03:12:17;8.00;79.10
52036;DHT22;38046;49.448;32.074;2023-03-09T03:14:44;8.00;79.10
52036;DHT22;38046;49.448;32.074;2023-03-09T03:17:09;8.00;78.90
52036;DHT22;38046;49.448;32.074;2023-03-09T03:19:35;8.00;79.40
52036;DHT22;38046;49.448;32.074;2023-03-09T03:22:02;8.00;78.70
52036;DHT22;38046;49.448;32.074;2023-03-09T03:24:28;8.00;78.60
52036;DHT22;38046;49.448;32.074;2023-03-09T03:26:54;7.90;78.60
52036;DHT22;38046;49.448;32.074;2023-03-09T03:29:21;7.90;78.70
52036;DHT22;38046;49.448;32.074;2023-03-09T03:31:47;7.90;78.70
52036;DHT22;38046;49.448;32.074;2023-03-09T03:34:12;7.90;78.80
52036;DHT22;38046;49.448;32.074;2023-03-09T03:36:38;7.80;78.80
52036;DHT22;38046;49.448;32.074;2023-03-09T03:39:04;7.80;78.90
52036;DHT22;38046;49.448;32.074;2023-03-09T03:41:31;7.80;78.90
52036;DHT22;38046;49.448;32.074;2023-03-09T03:43:57;7.80;79.00
52036;DHT22;38046;49.448;32.074;2023-03-09T03:46:23;7.80;78.90
52036;DHT22;38046;49.448;32.074;2023-03-09T03:48:48;7.80;78.90
52036;DHT22;38046;49.448;32.074;2023-03-09T03:51:14;7.80;78.80
52036;DHT22;38046;49.448;32.074;2023-03-09T03:53:40;7.80;78.90
52036;DHT22;38046;49.448;32.074;2023-03-09T03:56:06;7.70;78.80
52036;DHT22;38046;49.448;32.074;2023-03-09T03:58:32;7.70;78.80
52036;DHT22;38046;49.448;32.074;2023-03-09T04:00:57;7.70;78.80
52036;DHT22;38046;49.448;32.074;2023-03-09T04:03:23;7.70;78.90
52036;DHT22;38046;49.448;32.074;2023-03-09T04:05:49;7.80;79.10
52036;DHT22;38046;49.448;32.074;2023-03-09T04:08:14;7.80;79.20
52036;DHT22;38046;49.448;32.074;2023-03-09T04:10:41;7.80;79.20
52036;DHT22;38046;49.448;32.074;2023-03-09T04:13:06;7.80;79.10
52036;DHT22;38046;49.448;32.074;2023-03-09T04:15:33;7.80;79.00
52036;DHT22;38046;49.448;32.074;2023-03-09T04:17:59;7.80;79.00
52036;DHT22;38046;49.448;32.074;2023-03-09T04:20:24;7.80;79.00
52036;DHT22;38046;49.448;32.074;2023-03-09T04:22:50;7.80;79.00
52036;DHT22;38046;49.448;32.074;2023-03-09T04:25:16;7.90;79.00
52036;DHT22;38046;49.448;32.074;2023-03-09T04:27:42;7.90;78.90
52036;DHT22;38046;49.448;32.074;2023-03-09T04:30:09;7.90;78.80
52036;DHT22;38046;49.448;32.074;2023-03-09T04:32:35;7.90;79.00
52036;DHT22;38046;49.448;32.074;2023-03-09T04:35:01;7.90;78.90
52036;DHT22;38046;49.448;32.074;2023-03-09T04:37:27;7.90;78.90
52036;DHT22;38046;49.448;32.074;2023-03-09T04:39:53;8.00;79.10
52036;DHT22;38046;49.448;32.074;2023-03-09T04:42:18;8.00;79.00
52036;DHT22;38046;49.448;32.074;2023-03-09T04:44:44;8.00;79.10
52036;DHT22;38046;49.448;32.074;2023-03-09T04:47:13;8.10;79.10
52036;DHT22;38046;49.448;32.074;2023-03-09T04:49:40;8.10;79.10
52036;DHT22;38046;49.448;32.074;2023-03-09T04:52:06;8.20;79.10
52036;DHT22;38046;49.448;32.074;2023-03-09T04:54:32;8.30;79.10
52036;DHT22;38046;49.448;32.074;2023-03-09T04:56:58;8.30;79.10
52036;DHT22;38046;49.448;32.074;2023-03-09T04:59:24;8.40;79.10
52036;DHT22;38046;49.448;32.074;2023-03-09T05:01:49;8.50;79.10
52036;DHT22;38046;49.448;32.074;2023-03-09T05:04:15;8.50;78.90
52036;DHT22;38046;49.448;32.074;2023-03-09T05:06:41;8.60;78.80
52036;DHT22;38046;49.448;32.074;2023-03-09T05:09:07;8.70;78.60
52036;DHT22;38046;49.448;32.074;2023-03-09T05:11:33;8.70;78.40
52036;DHT22;38046;49.448;32.074;2023-03-09T05:13:59;8.80;78.20
52036;DHT22;38046;49.448;32.074;2023-03-09T05:16:25;8.80;78.00
52036;DHT22;38046;49.448;32.074;2023-03-09T05:18:51;8.80;77.80
52036;DHT22;38046;49.448;32.074;2023-03-09T05:21:17;8.80;77.50
52036;DHT22;38046;49.448;32.074;2023-03-09T05:23:43;8.80;77.40
52036;DHT22;38046;49.448;32.074;2023-03-09T05:26:09;8.80;77.50
52036;DHT22;38046;49.448;32.074;2023-03-09T05:28:36;8.70;77.60
52036;DHT22;38046;49.448;32.074;2023-03-09T05:31:04;8.80;77.80
52036;DHT22;38046;49.448;32.074;2023-03-09T05:33:32;8.80;77.90
52036;DHT22;38046;49.448;32.074;2023-03-09T05:35:57;8.80;78.00
52036;DHT22;38046;49.448;32.074;2023-03-09T05:38:23;8.90;78.30
52036;DHT22;38046;49.448;32.074;2023-03-09T05:40:49;9.00;78.20
52036;DHT22;38046;49.448;32.074;2023-03-09T05:43:14;9.10;78.00
52036;DHT22;38046;49.448;32.074;2023-03-09T05:45:40;9.10;77.60
52036;DHT22;38046;49.448;32.074;2023-03-09T05:48:06;9.10;77.10
52036;DHT22;38046;49.448;32.074;2023-03-09T05:50:32;9.10;77.50
52036;DHT22;38046;49.448;32.074;2023-03-09T05:52:58;9.10;76.80
52036;DHT22;38046;49.448;32.074;2023-03-09T05:55:23;9.10;77.10
52036;DHT22;38046;49.448;32.074;2023-03-09T05:57:49;9.10;77.30
52036;DHT22;38046;49.448;32.074;2023-03-09T06:00:15;9.20;77.90
52036;DHT22;38046;49.448;32.074;2023-03-09T06:02:42;9.40;78.60
52036;DHT22;38046;49.448;32.074;2023-03-09T06:05:08;9.70;79.50
52036;DHT22;38046;49.448;32.074;2023-03-09T06:07:33;10.10;79.20
52036;DHT22;38046;49.448;32.074;2023-03-09T06:09:59;10.40;78.60
52036;DHT22;38046;49.448;32.074;2023-03-09T06:12:25;10.90;78.30
52036;DHT22;38046;49.448;32.074;2023-03-09T06:14:51;11.40;77.80
52036;DHT22;38046;49.448;32.074;2023-03-09T06:17:17;12.00;77.00
52036;DHT22;38046;49.448;32.074;2023-03-09T06:19:43;12.60;75.80
52036;DHT22;38046;49.448;32.074;2023-03-09T06:22:09;13.20;74.40
52036;DHT22;38046;49.448;32.074;2023-03-09T06:24:35;13.60;73.10
52036;DHT22;38046;49.448;32.074;2023-03-09T06:27:02;14.00;71.80
52036;DHT22;38046;49.448;32.074;2023-03-09T06:29:28;14.30;70.90
52036;DHT22;38046;49.448;32.074;2023-03-09T06:31:53;14.70;70.10
52036;DHT22;38046;49.448;32.074;2023-03-09T06:34:19;15.00;68.90
52036;DHT22;38046;49.448;32.074;2023-03-09T06:36:45;15.20;67.80
52036;DHT22;38046;49.448;32.074;2023-03-09T06:39:11;15.30;66.80
52036;DHT22;38046;49.448;32.074;2023-03-09T06:41:36;15.20;65.90
52036;DHT22;38046;49.448;32.074;2023-03-09T06:44:02;15.00;65.70
52036;DHT22;38046;49.448;32.074;2023-03-09T06:46:30;14.80;65.60
52036;DHT22;38046;49.448;32.074;2023-03-09T06:48:56;14.60;65.60
52036;DHT22;38046;49.448;32.074;2023-03-09T06:51:22;14.40;65.80
52036;DHT22;38046;49.448;32.074;2023-03-09T06:53:48;14.10;66.20
52036;DHT22;38046;49.448;32.074;2023-03-09T06:56:13;13.90;66.10
52036;DHT22;38046;49.448;32.074;2023-03-09T06:58:39;13.80;66.60
52036;DHT22;38046;49.448;32.074;2023-03-09T07:01:10;13.70;66.80
52036;DHT22;38046;49.448;32.074;2023-03-09T07:03:36;13.60;66.60
52036;DHT22;38046;49.448;32.074;2023-03-09T07:06:02;13.50;66.60
52036;DHT22;38046;49.448;32.074;2023-03-09T07:08:28;13.50;66.60
52036;DHT22;38046;49.448;32.074;2023-03-09T07:10:54;13.40;66.50
52036;DHT22;38046;49.448;32.074;2023-03-09T07:13:20;13.40;66.40
52036;DHT22;38046;49.448;32.074;2023-03-09T07:15:46;13.30;66.30
52036;DHT22;38046;49.448;32.074;2023-03-09T07:18:12;13.30;66.40
52036;DHT22;38046;49.448;32.074;2023-03-09T07:20:39;13.30;66.80
52036;DHT22;38046;49.448;32.074;2023-03-09T07:23:05;13.30;66.90
52036;DHT22;38046;49.448;32.074;2023-03-09T07:25:31;13.30;67.00
52036;DHT22;38046;49.448;32.074;2023-03-09T07:28:00;13.40;66.90
52036;DHT22;38046;49.448;32.074;2023-03-09T07:30:27;13.40;66.50
52036;DHT22;38046;49.448;32.074;2023-03-09T07:32:55;13.30;65.90
52036;DHT22;38046;49.448;32.074;2023-03-09T07:35:21;13.30;65.70
52036;DHT22;38046;49.448;32.074;2023-03-09T07:37:47;13.20;65.40
52036;DHT22;38046;49.448;32.074;2023-03-09T07:40:13;13.10;65.40
52036;DHT22;38046;49.448;32.074;2023-03-09T07:42:38;13.00;65.60
52036;DHT22;38046;49.448;32.074;2023-03-09T07:45:05;13.00;65.70
52036;DHT22;38046;49.448;32.074;2023-03-09T07:47:32;13.00;65.50
52036;DHT22;38046;49.448;32.074;2023-03-09T07:49:58;13.00;65.50
52036;DHT22;38046;49.448;32.074;2023-03-09T07:52:24;13.00;65.50
52036;DHT22;38046;49.448;32.074;2023-03-09T07:54:57;13.00;65.50
52036;DHT22;38046;49.448;32.074;2023-03-09T07:57:22;13.00;65.50
52036;DHT22;38046;49.448;32.074;2023-03-09T07:59:55;13.00;65.50
52036;DHT22;38046;49.448;32.074;2023-03-09T08:02:21;13.10;65.50
52036;DHT22;38046;49.448;32.074;2023-03-09T08:04:47;13.10;65.40
52036;DHT22;38046;49.448;32.074;2023-03-09T08:07:13;13.10;65.50
52036;DHT22;38046;49.448;32.074;2023-03-09T08:09:41;13.10;65.50
52036;DHT22;38046;49.448;32.074;2023-03-09T08:12:08;13.10;65.60
52036;DHT22;38046;49.448;32.074;2023-03-09T08:14:34;13.10;65.60
52036;DHT22;38046;49.448;32.074;2023-03-09T08:17:00;13.10;65.50
52036;DHT22;38046;49.448;32.074;2023-03-09T08:19:28;13.10;65.40
52036;DHT22;38046;49.448;32.074;2023-03-09T08:21:53;13.10;65.40
52036;DHT22;38046;49.448;32.074;2023-03-09T08:24:19;13.10;65.40
52036;DHT22;38046;49.448;32.074;2023-03-09T08:26:45;13.10;65.50
52036;DHT22;38046;49.448;32.074;2023-03-09T08:29:11;13.10;65.40
52036;DHT22;38046;49.448;32.074;2023-03-09T08:31:37;13.10;65.40
52036;DHT22;38046;49.448;32.074;2023-03-09T08:34:03;13.10;65.20
52036;DHT22;38046;49.448;32.074;2023-03-09T08:36:30;13.20;65.20
52036;DHT22;38046;49.448;32.074;2023-03-09T08:38:56;13.20;65.10
52036;DHT22;38046;49.448;32.074;2023-03-09T08:41:22;13.30;65.20
52036;DHT22;38046;49.448;32.074;2023-03-09T08:43:48;13.30;65.10
52036;DHT22;38046;49.448;32.074;2023-03-09T08:46:14;13.40;65.70
52036;DHT22;38046;49.448;32.074;2023-03-09T08:48:40;13.50;65.00
52036;DHT22;38046;49.448;32.074;2023-03-09T08:51:08;13.60;65.10
52036;DHT22;38046;49.448;32.074;2023-03-09T08:53:35;13.70;65.00
52036;DHT22;38046;49.448;32.074;2023-03-09T08:56:09;13.70;64.70
52036;DHT22;38046;49.448;32.074;2023-03-09T08:58:36;13.90;64.60
52036;DHT22;38046;49.448;32.074;2023-03-09T09:01:03;13.90;64.40
52036;DHT22;38046;49.448;32.074;2023-03-09T09:03:29;14.00;64.40
52036;DHT22;38046;49.448;32.074;2023-03-09T09:06:02;14.00;64.00
52036;DHT22;38046;49.448;32.074;2023-03-09T09:08:28;14.10;63.90
52036;DHT22;38046;49.448;32.074;2023-03-09T09:10:54;14.20;64.00
52036;DHT22;38046;49.448;32.074;2023-03-09T09:13:23;14.20;64.00
52036;DHT22;38046;49.448;32.074;2023-03-09T09:15:55;14.30;63.80
52036;DHT22;38046;49.448;32.074;2023-03-09T09:18:21;14.30;63.60
52036;DHT22;38046;49.448;32.074;2023-03-09T09:20:47;14.30;63.50
52036;DHT22;38046;49.448;32.074;2023-03-09T09:23:14;14.30;63.20
52036;DHT22;38046;49.448;32.074;2023-03-09T09:25:39;14.40;63.20
52036;DHT22;38046;49.448;32.074;2023-03-09T09:28:05;14.40;63.20
52036;DHT22;38046;49.448;32.074;2023-03-09T09:30:32;14.50;63.10
52036;DHT22;38046;49.448;32.074;2023-03-09T09:32:59;14.50;62.90
52036;DHT22;38046;49.448;32.074;2023-03-09T09:35:26;14.60;62.60
52036;DHT22;38046;49.448;32.074;2023-03-09T09:37:52;14.60;63.10
52036;DHT22;38046;49.448;32.074;2023-03-09T09:40:20;14.60;62.40
52036;DHT22;38046;49.448;32.074;2023-03-09T09:42:46;14.60;62.20
52036;DHT22;38046;49.448;32.074;2023-03-09T09:45:32;14.70;62.10
52036;DHT22;38046;49.448;32.074;2023-03-09T09:48:02;14.70;62.00
52036;DHT22;38046;49.448;32.074;2023-03-09T09:56:25;14.80;61.50
52036;DHT22;38046;49.448;32.074;2023-03-09T10:01:32;14.80;61.20
52036;DHT22;38046;49.448;32.074;2023-03-09T10:04:05;14.80;61.10
52036;DHT22;38046;49.448;32.074;2023-03-09T10:06:32;14.80;61.20
52036;DHT22;38046;49.448;32.074;2023-03-09T10:09:10;14.80;60.80
52036;DHT22;38046;49.448;32.074;2023-03-09T10:11:45;14.80;61.30
52036;DHT22;38046;49.448;32.074;2023-03-09T10:19:35;14.90;61.40
52036;DHT22;38046;49.448;32.074;2023-03-09T10:24:44;14.90;61.10
52036;DHT22;38046;49.448;32.074;2023-03-09T10:27:26;15.00;61.00
52036;DHT22;38046;49.448;32.074;2023-03-09T10:37:52;15.00;60.00
52036;DHT22;38046;49.448;32.074;2023-03-09T10:40:29;15.10;59.90
52036;DHT22;38046;49.448;32.074;2023-03-09T10:42:59;15.10;59.80
52036;DHT22;38046;49.448;32.074;2023-03-09T10:45:31;15.10;59.90
52036;DHT22;38046;49.448;32.074;2023-03-09T10:48:05;15.10;59.70
52036;DHT22;38046;49.448;32.074;2023-03-09T10:50:39;15.20;59.80
52036;DHT22;38046;49.448;32.074;2023-03-09T10:55:57;15.20;59.50
52036;DHT22;38046;49.448;32.074;2023-03-09T10:58:28;15.20;59.40
52036;DHT22;38046;49.448;32.074;2023-03-09T11:01:03;15.30;59.50
52036;DHT22;38046;49.448;32.074;2023-03-09T11:03:37;15.30;59.50
52036;DHT22;38046;49.448;32.074;2023-03-09T11:08:41;15.30;59.40
52036;DHT22;38046;49.448;32.074;2023-03-09T11:11:18;15.40;59.30
52036;DHT22;38046;49.448;32.074;2023-03-09T11:13:45;15.40;59.00
52036;DHT22;38046;49.448;32.074;2023-03-09T11:16:21;15.50;59.10
52036;DHT22;38046;49.448;32.074;2023-03-09T11:18:48;15.50;58.70
52036;DHT22;38046;49.448;32.074;2023-03-09T11:21:23;15.50;58.50
52036;DHT22;38046;49.448;32.074;2023-03-09T11:23:51;15.50;58.50
52036;DHT22;38046;49.448;32.074;2023-03-09T11:26:23;15.60;58.60
52036;DHT22;38046;49.448;32.074;2023-03-09T11:31:23;15.60;58.40
52036;DHT22;38046;49.448;32.074;2023-03-09T11:33:52;15.50;57.90
52036;DHT22;38046;49.448;32.074;2023-03-09T11:39:30;15.50;58.30
52036;DHT22;38046;49.448;32.074;2023-03-09T11:41:57;15.50;58.60
52036;DHT22;38046;49.448;32.074;2023-03-09T11:46:59;15.50;58.30
52036;DHT22;38046;49.448;32.074;2023-03-09T11:49:27;15.50;58.30
52036;DHT22;38046;49.448;32.074;2023-03-09T11:51:55;15.50;58.40
52036;DHT22;38046;49.448;32.074;2023-03-09T11:56:52;15.60;58.30
52036;DHT22;38046;49.448;32.074;2023-03-09T12:04:22;15.60;58.00
52036;DHT22;38046;49.448;32.074;2023-03-09T12:07:00;15.70;58.20
52036;DHT22;38046;49.448;32.074;2023-03-09T12:09:49;15.70;57.80
52036;DHT22;38046;49.448;32.074;2023-03-09T12:15:39;15.70;58.00
52036;DHT22;38046;49.448;32.074;2023-03-09T12:17:50;15.70;57.90
52036;DHT22;38046;49.448;32.074;2023-03-09T12:20:38;15.70;57.90
52036;DHT22;38046;49.448;32.074;2023-03-09T12:23:05;15.80;57.60
52036;DHT22;38046;49.448;32.074;2023-03-09T12:25:56;15.80;57.70
52036;DHT22;38046;49.448;32.074;2023-03-09T12:28:22;15.80;57.40
52036;DHT22;38046;49.448;32.074;2023-03-09T12:30:55;15.80;57.60
52036;DHT22;38046;49.448;32.074;2023-03-09T12:36:28;15.90;57.40
52036;DHT22;38046;49.448;32.074;2023-03-09T12:47:39;15.90;56.90
52036;DHT22;38046;49.448;32.074;2023-03-09T12:53:04;15.90;56.90
52036;DHT22;38046;49.448;32.074;2023-03-09T13:03:21;16.00;56.70
52036;DHT22;38046;49.448;32.074;2023-03-09T13:05:52;16.00;56.70
52036;DHT22;38046;49.448;32.074;2023-03-09T13:08:24;16.10;56.60
52036;DHT22;38046;49.448;32.074;2023-03-09T13:11:17;16.00;55.80
52036;DHT22;38046;49.448;32.074;2023-03-09T13:13:40;16.10;56.70
52036;DHT22;38046;49.448;32.074;2023-03-09T13:27:27;16.10;56.50
52036;DHT22;38046;49.448;32.074;2023-03-09T13:33:02;16.10;55.90
52036;DHT22;38046;49.448;32.074;2023-03-09T13:35:40;16.10;55.70
52036;DHT22;38046;49.448;32.074;2023-03-09T13:38:24;16.10;55.80
52036;DHT22;38046;49.448;32.074;2023-03-09T13:40:54;16.20;55.80
52036;DHT22;38046;49.448;32.074;2023-03-09T13:43:29;16.20;55.70
52036;DHT22;38046;49.448;32.074;2023-03-09T13:48:31;16.20;55.50
52036;DHT22;38046;49.448;32.074;2023-03-09T13:50:59;16.20;55.50
52036;DHT22;38046;49.448;32.074;2023-03-09T13:53:27;16.20;55.50
52036;DHT22;38046;49.448;32.074;2023-03-09T13:55:56;16.20;55.50
52036;DHT22;38046;49.448;32.074;2023-03-09T13:58:23;16.20;55.30
52036;DHT22;38046;49.448;32.074;2023-03-09T14:00:58;16.20;55.40
52036;DHT22;38046;49.448;32.074;2023-03-09T14:03:27;16.20;55.40
52036;DHT22;38046;49.448;32.074;2023-03-09T14:06:08;16.10;55.30
52036;DHT22;38046;49.448;32.074;2023-03-09T14:08:47;16.10;55.40
52036;DHT22;38046;49.448;32.074;2023-03-09T14:11:27;16.10;55.40
52036;DHT22;38046;49.448;32.074;2023-03-09T14:13:57;16.10;55.50
52036;DHT22;38046;49.448;32.074;2023-03-09T14:16:27;16.10;55.30
52036;DHT22;38046;49.448;32.074;2023-03-09T14:18:55;16.00;55.50
52036;DHT22;38046;49.448;32.074;2023-03-09T14:26:43;16.10;55.20
52036;DHT22;38046;49.448;32.074;2023-03-09T14:29:28;16.10;55.10
52036;DHT22;38046;49.448;32.074;2023-03-09T14:32:21;16.10;55.10
52036;DHT22;38046;49.448;32.074;2023-03-09T14:34:49;16.10;55.10
52036;DHT22;38046;49.448;32.074;2023-03-09T14:37:26;16.10;55.20
52036;DHT22;38046;49.448;32.074;2023-03-09T14:39:54;16.10;55.20
52036;DHT22;38046;49.448;32.074;2023-03-09T14:42:26;16.10;55.20
52036;DHT22;38046;49.448;32.074;2023-03-09T14:47:24;16.10;55.20
52036;DHT22;38046;49.448;32.074;2023-03-09T14:49:51;16.10;55.10
52036;DHT22;38046;49.448;32.074;2023-03-09T14:52:18;16.10;55.00
52036;DHT22;38046;49.448;32.074;2023-03-09T14:54:44;16.10;54.90
52036;DHT22;38046;49.448;32.074;2023-03-09T14:57:12;16.10;55.00
52036;DHT22;38046;49.448;32.074;2023-03-09T14:59:38;16.00;54.90
52036;DHT22;38046;49.448;32.074;2023-03-09T15:02:06;16.00;54.90
52036;DHT22;38046;49.448;32.074;2023-03-09T15:04:33;16.00;54.90
52036;DHT22;38046;49.448;32.074;2023-03-09T15:06:59;16.00;55.00
52036;DHT22;38046;49.448;32.074;2023-03-09T15:09:25;16.00;55.00
52036;DHT22;38046;49.448;32.074;2023-03-09T15:11:52;16.00;55.00
52036;DHT22;38046;49.448;32.074;2023-03-09T15:14:48;16.00;55.00
52036;DHT22;38046;49.448;32.074;2023-03-09T15:17:18;15.90;54.90
52036;DHT22;38046;49.448;32.074;2023-03-09T15:19:44;16.00;55.10
52036;DHT22;38046;49.448;32.074;2023-03-09T15:22:12;15.90;55.00
52036;DHT22;38046;49.448;32.074;2023-03-09T15:24:38;15.90;55.10
52036;DHT22;38046;49.448;32.074;2023-03-09T15:27:04;15.90;55.00
52036;DHT22;38046;49.448;32.074;2023-03-09T15:29:29;15.80;55.80
52036;DHT22;38046;49.448;32.074;2023-03-09T15:31:55;15.70;55.30
52036;DHT22;38046;49.448;32.074;2023-03-09T15:34:21;15.70;55.50
52036;DHT22;38046;49.448;32.074;2023-03-09T15:36:46;15.60;55.60
52036;DHT22;38046;49.448;32.074;2023-03-09T15:39:12;15.60;55.50
52036;DHT22;38046;49.448;32.074;2023-03-09T15:41:38;15.60;55.60
52036;DHT22;38046;49.448;32.074;2023-03-09T15:44:04;15.50;55.60
52036;DHT22;38046;49.448;32.074;2023-03-09T15:46:29;15.50;55.70
52036;DHT22;38046;49.448;32.074;2023-03-09T15:48:55;15.50;55.80
52036;DHT22;38046;49.448;32.074;2023-03-09T15:51:21;15.40;55.70
52036;DHT22;38046;49.448;32.074;2023-03-09T15:53:47;15.40;55.90
52036;DHT22;38046;49.448;32.074;2023-03-09T15:56:14;15.40;56.10
52036;DHT22;38046;49.448;32.074;2023-03-09T15:58:40;15.30;56.10
52036;DHT22;38046;49.448;32.074;2023-03-09T16:01:17;15.30;56.20
52036;DHT22;38046;49.448;32.074;2023-03-09T16:03:44;15.20;56.20
52036;DHT22;38046;49.448;32.074;2023-03-09T16:06:10;15.10;56.30
52036;DHT22;38046;49.448;32.074;2023-03-09T16:08:36;15.10;56.40
52036;DHT22;38046;49.448;32.074;2023-03-09T16:11:02;15.00;56.50
52036;DHT22;38046;49.448;32.074;2023-03-09T16:13:28;15.00;56.50
52036;DHT22;38046;49.448;32.074;2023-03-09T16:15:53;14.90;56.40
52036;DHT22;38046;49.448;32.074;2023-03-09T16:18:19;14.90;56.60
52036;DHT22;38046;49.448;32.074;2023-03-09T16:20:45;14.90;56.70
52036;DHT22;38046;49.448;32.074;2023-03-09T16:23:11;14.90;56.70
52036;DHT22;38046;49.448;32.074;2023-03-09T16:25:38;14.90;56.80
52036;DHT22;38046;49.448;32.074;2023-03-09T16:28:04;14.90;56.80
52036;DHT22;38046;49.448;32.074;2023-03-09T16:30:30;14.90;56.80
52036;DHT22;38046;49.448;32.074;2023-03-09T16:32:56;14.80;56.70
52036;DHT22;38046;49.448;32.074;2023-03-09T16:35:23;14.80;56.70
52036;DHT22;38046;49.448;32.074;2023-03-09T16:37:50;14.90;56.70
52036;DHT22;38046;49.448;32.074;2023-03-09T16:40:16;14.90;56.80
52036;DHT22;38046;49.448;32.074;2023-03-09T16:42:42;14.90;56.80
52036;DHT22;38046;49.448;32.074;2023-03-09T16:45:08;14.90;56.80
52036;DHT22;38046;49.448;32.074;2023-03-09T16:47:36;14.80;56.90
52036;DHT22;38046;49.448;32.074;2023-03-09T16:50:06;14.90;56.90
52036;DHT22;38046;49.448;32.074;2023-03-09T16:52:32;14.80;57.60
52036;DHT22;38046;49.448;32.074;2023-03-09T16:55:01;14.80;57.00
52036;DHT22;38046;49.448;32.074;2023-03-09T16:57:27;14.80;56.90
52036;DHT22;38046;49.448;32.074;2023-03-09T16:59:55;14.80;57.00
52036;DHT22;38046;49.448;32.074;2023-03-09T17:02:21;14.80;56.90
52036;DHT22;38046;49.448;32.074;2023-03-09T17:04:47;14.80;57.50
52036;DHT22;38046;49.448;32.074;2023-03-09T17:07:13;14.80;56.80
52036;DHT22;38046;49.448;32.074;2023-03-09T17:09:39;14.90;56.80